Time;durP1;ratioP1;P1;durP2;ratioP2;P2;SDS_P1;SDS_P2;PMS_P1;PMS_P2;Temp;Humidity;BMP_temperature;BMP_pressure;BME280_temperature;BME280_humidity;BME280_pressure;Samples;Min_cycle;Max_cycle;Signal;HPM_P1;HPM_P2
2022/02/24 00:01:50;;;;;;;;;;;;;;;14.36;48.18;101259.38;4920201;28;128963;-63
2022/02/24 00:04:16;;;;;;;;;;;;;;;14.36;48.07;101266.72;4935986;28;126945;-64
2022/02/24 00:06:42;;;;;;;;;;;;;;;14.34;48.00;101260.72;4936581;28;124324;-69
2022/02/24 00:09:08;;;;;;;;;;;;;;;14.32;47.80;101268.34;4939068;28;101826;-63
2022/02/24 00:11:37;;;;;;;;;;;;;;;14.28;48.20;101268.06;4919715;28;128315;-69
2022/02/24 00:14:03;;;;;;;;;;;;;;;14.27;47.79;101268.34;4919851;28;98193;-63
2022/02/24 00:16:29;;;;;;;;;;;;;;;14.23;47.73;101266.19;4902097;28;97904;-63
2022/02/24 00:18:55;;;;;;;;;;;;;;;14.23;47.83;101268.09;4918893;28;127034;-63
2022/02/24 00:21:21;;;;;;;;;;;;;;;14.20;48.18;101269.44;4901189;28;128773;-63
2022/02/24 00:23:47;;;;;;;;;;;;;;;14.19;47.99;101262.41;4901604;28;98049;-68
2022/02/24 00:26:13;;;;;;;;;;;;;;;14.18;48.16;101259.94;4920481;28;98059;-68
2022/02/24 00:28:39;;;;;;;;;;;;;;;14.15;47.72;101255.88;4900875;28;127513;-69
2022/02/24 00:31:08;;;;;;;;;;;;;;;14.13;47.79;101257.22;4907605;28;125873;-63
2022/02/24 00:33:34;;;;;;;;;;;;;;;14.13;47.82;101257.22;4939624;28;97828;-63
2022/02/24 00:36:00;;;;;;;;;;;;;;;14.10;47.65;101255.06;4939041;28;120956;-64
2022/02/24 00:38:26;;;;;;;;;;;;;;;14.08;47.70;101258.06;4904519;28;111201;-62
2022/02/24 00:40:52;;;;;;;;;;;;;;;14.08;47.75;101260.75;4887958;28;127988;-68
2022/02/24 00:43:18;;;;;;;;;;;;;;;14.05;47.89;101255.88;4920927;28;128465;-68
2022/02/24 00:45:44;;;;;;;;;;;;;;;14.04;47.87;101251.56;4938127;28;121910;-62
2022/02/24 00:48:10;;;;;;;;;;;;;;;14.03;48.04;101251.81;4897589;28;128186;-69
2022/02/24 00:50:37;;;;;;;;;;;;;;;14.00;48.00;101245.03;4919860;28;98585;-63
2022/02/24 00:53:03;;;;;;;;;;;;;;;13.98;48.04;101242.59;4902082;28;124055;-63
2022/02/24 00:55:29;;;;;;;;;;;;;;;13.98;47.89;101236.34;4918355;28;120250;-68
2022/02/24 00:57:55;;;;;;;;;;;;;;;13.95;48.03;101231.47;4919398;28;98979;-68
2022/02/24 01:00:21;;;;;;;;;;;;;;;13.94;47.66;101227.94;4934055;28;98613;-68
2022/02/24 01:02:47;;;;;;;;;;;;;;;13.92;47.61;101223.91;4921152;28;110795;-62
2022/02/24 01:05:13;;;;;;;;;;;;;;;13.93;47.85;101228.25;4920277;28;113102;-67
2022/02/24 01:07:39;;;;;;;;;;;;;;;13.92;47.89;101224.72;4936111;28;128170;-63
2022/02/24 01:10:05;;;;;;;;;;;;;;;13.91;47.72;101219.56;4900754;28;128547;-63
2022/02/24 01:12:31;;;;;;;;;;;;;;;13.89;47.65;101209.00;4884522;28;104954;-68
2022/02/24 01:15:03;;;;;;;;;;;;;;;13.89;47.94;101216.31;4913343;28;122895;-69
2022/02/24 01:17:30;;;;;;;;;;;;;;;13.89;47.60;101208.19;4938938;28;97961;-67
2022/02/24 01:19:56;;;;;;;;;;;;;;;13.88;47.57;101207.38;4943119;28;98625;-68
2022/02/24 01:22:22;;;;;;;;;;;;;;;13.87;47.54;101205.75;4941884;28;127446;-68
2022/02/24 01:24:48;;;;;;;;;;;;;;;13.87;47.75;101196.78;4941848;28;120693;-63
2022/02/24 01:27:13;;;;;;;;;;;;;;;13.85;47.83;101191.66;4917966;28;126857;-63
2022/02/24 01:29:39;;;;;;;;;;;;;;;13.84;47.71;101191.94;4921063;28;127890;-67
2022/02/24 01:32:06;;;;;;;;;;;;;;;13.84;47.77;101178.38;4903842;28;126935;-67
2022/02/24 01:34:32;;;;;;;;;;;;;;;13.83;47.50;101174.03;4920538;28;120940;-67
2022/02/24 01:36:58;;;;;;;;;;;;;;;13.82;47.74;101178.63;4922849;28;98291;-63
2022/02/24 01:39:23;;;;;;;;;;;;;;;13.81;47.59;101174.31;4930903;28;123547;-63
2022/02/24 01:41:49;;;;;;;;;;;;;;;13.81;47.98;101159.97;4941832;28;102357;-62
2022/02/24 01:44:15;;;;;;;;;;;;;;;13.80;47.92;101155.63;4941956;28;97913;-68
2022/02/24 01:46:42;;;;;;;;;;;;;;;13.78;47.63;101157.78;4941702;28;126979;-63
2022/02/24 01:49:08;;;;;;;;;;;;;;;13.76;47.60;101152.66;4922489;28;101919;-68
2022/02/24 01:51:34;;;;;;;;;;;;;;;13.75;47.60;101157.25;4907684;28;97897;-68
2022/02/24 01:54:00;;;;;;;;;;;;;;;13.75;47.67;101153.72;4940933;28;119761;-68
2022/02/24 01:56:26;;;;;;;;;;;;;;;13.74;48.03;101149.38;4926783;28;128757;-63
2022/02/24 01:58:52;;;;;;;;;;;;;;;13.73;47.81;101148.56;4922198;28;118335;-68
2022/02/24 02:01:18;;;;;;;;;;;;;;;13.71;47.78;101131.75;4922626;28;98395;-63
2022/02/24 02:03:44;;;;;;;;;;;;;;;13.70;47.93;101132.84;4903699;28;98022;-67
2022/02/24 02:06:10;;;;;;;;;;;;;;;13.70;47.55;101134.75;4887773;28;100223;-63
2022/02/24 02:08:36;;;;;;;;;;;;;;;13.69;47.85;101135.84;4904584;28;99192;-67
2022/02/24 02:11:02;;;;;;;;;;;;;;;13.68;47.63;101126.91;4921942;28;98069;-63
2022/02/24 02:13:33;;;;;;;;;;;;;;;13.68;47.81;101136.94;4921493;28;120576;-68
2022/02/24 02:15:59;;;;;;;;;;;;;;;13.67;47.89;101132.59;4921859;28;99125;-68
2022/02/24 02:18:25;;;;;;;;;;;;;;;13.66;47.52;101118.22;4887387;28;127832;-69
2022/02/24 02:20:51;;;;;;;;;;;;;;;13.67;47.84;101121.75;4921423;28;97809;-63
2022/02/24 02:23:17;;;;;;;;;;;;;;;13.65;47.41;101119.31;4908948;28;97924;-63
2022/02/24 02:25:43;;;;;;;;;;;;;;;13.64;47.78;101125.84;4921773;28;127921;-68
2022/02/24 02:28:12;;;;;;;;;;;;;;;13.63;47.96;101121.47;4923357;28;128054;-63
2022/02/24 02:30:38;;;;;;;;;;;;;;;13.63;48.09;101129.59;4921501;28;123694;-63
2022/02/24 02:33:04;;;;;;;;;;;;;;;13.62;47.69;101124.47;4940352;28;123351;-63
2022/02/24 02:35:30;;;;;;;;;;;;;;;13.61;47.70;101123.66;4940339;28;126643;-68
2022/02/24 02:37:57;;;;;;;;;;;;;;;13.60;47.74;101121.22;4940544;28;128491;-67
2022/02/24 02:40:23;;;;;;;;;;;;;;;13.59;47.89;101117.69;4940264;28;99450;-68
2022/02/24 02:42:50;;;;;;;;;;;;;;;13.59;47.66;101117.69;4939747;28;121781;-64
2022/02/24 02:45:16;;;;;;;;;;;;;;;13.58;48.06;101115.25;4941090;28;98491;-67
2022/02/24 02:47:42;;;;;;;;;;;;;;;13.58;47.78;101107.94;4941071;28;98063;-67
2022/02/24 02:50:08;;;;;;;;;;;;;;;13.57;47.89;101105.53;4941907;28;97920;-68
2022/02/24 02:52:34;;;;;;;;;;;;;;;13.56;47.84;101093.03;4927147;28;104727;-64
2022/02/24 02:55:06;;;;;;;;;;;;;;;13.55;47.84;101086.81;4902688;28;100303;-67
2022/02/24 02:57:32;;;;;;;;;;;;;;;13.54;47.58;101082.50;4904139;28;98054;-64
2022/02/24 02:59:58;;;;;;;;;;;;;;;13.54;47.70;101081.69;4920678;28;99939;-67
2022/02/24 03:02:24;;;;;;;;;;;;;;;13.53;47.87;101082.78;4922773;28;97954;-68
2022/02/24 03:04:50;;;;;;;;;;;;;;;13.53;47.66;101077.34;4919582;28;126916;-63
2022/02/24 03:07:17;;;;;;;;;;;;;;;13.50;48.05;101076.78;4921358;28;99145;-64
2022/02/24 03:09:44;;;;;;;;;;;;;;;13.50;47.90;101071.38;4921400;28;97859;-64
2022/02/24 03:12:11;;;;;;;;;;;;;;;13.49;47.94;101066.25;4918776;28;98088;-63
2022/02/24 03:14:38;;;;;;;;;;;;;;;13.48;48.13;101060.03;4921429;28;98628;-67
2022/02/24 03:17:04;;;;;;;;;;;;;;;13.48;47.78;101051.09;4921609;28;99078;-63
2022/02/24 03:19:30;;;;;;;;;;;;;;;13.48;47.80;101045.69;4926485;28;122651;-67
2022/02/24 03:21:56;;;;;;;;;;;;;;;13.46;47.81;101047.84;4940090;28;123136;-63
2022/02/24 03:24:22;;;;;;;;;;;;;;;13.46;48.00;101047.84;4939280;28;126070;-63
2022/02/24 03:26:48;;;;;;;;;;;;;;;13.46;47.79;101042.41;4929789;28;100252;-63
2022/02/24 03:29:14;;;;;;;;;;;;;;;13.45;47.86;101032.66;4920316;28;118777;-63
2022/02/24 03:31:40;;;;;;;;;;;;;;;13.44;47.95;101033.72;4902880;28;97921;-68
2022/02/24 03:34:06;;;;;;;;;;;;;;;13.43;47.81;101030.22;4919490;28;129301;-64
2022/02/24 03:36:33;;;;;;;;;;;;;;;13.42;47.76;101028.59;4920365;28;98295;-63
2022/02/24 03:38:58;;;;;;;;;;;;;;;13.41;47.87;101024.28;4919515;28;97919;-68
2022/02/24 03:41:24;;;;;;;;;;;;;;;13.41;47.77;101018.88;4920636;28;117090;-68
2022/02/24 03:43:53;;;;;;;;;;;;;;;13.40;47.97;101011.84;4920129;28;128136;-63
2022/02/24 03:46:20;;;;;;;;;;;;;;;13.39;48.06;101015.59;4920896;28;98472;-63
2022/02/24 03:48:47;;;;;;;;;;;;;;;13.38;47.86;101014.00;4936241;28;100059;-63
2022/02/24 03:51:13;;;;;;;;;;;;;;;13.38;47.74;101022.09;4940144;28;117602;-69
2022/02/24 03:53:39;;;;;;;;;;;;;;;13.37;47.98;101015.06;4939180;28;127711;-63
2022/02/24 03:56:04;;;;;;;;;;;;;;;13.37;47.56;101011.56;4939326;28;127765;-68
2022/02/24 03:58:31;;;;;;;;;;;;;;;13.35;47.85;101008.31;4939715;28;127618;-68
2022/02/24 04:00:56;;;;;;;;;;;;;;;13.35;47.93;101013.72;4938942;28;122546;-68
2022/02/24 04:03:22;;;;;;;;;;;;;;;13.34;48.07;101012.91;4937588;28;128261;-64
2022/02/24 04:05:48;;;;;;;;;;;;;;;13.33;47.90;100996.94;4920864;28;128118;-67
2022/02/24 04:08:14;;;;;;;;;;;;;;;13.32;47.73;100998.81;4937038;28;127567;-67
2022/02/24 04:10:40;;;;;;;;;;;;;;;13.31;47.93;100999.09;4925977;28;98198;-68
2022/02/24 04:13:06;;;;;;;;;;;;;;;13.30;47.96;100995.59;4920513;28;98703;-63
2022/02/24 04:15:32;;;;;;;;;;;;;;;13.30;47.84;101001.00;4924933;28;127292;-63
2022/02/24 04:17:58;;;;;;;;;;;;;;;13.29;47.53;100985.03;4940066;28;98461;-64
2022/02/24 04:20:24;;;;;;;;;;;;;;;13.27;48.05;100985.28;4939113;28;123441;-63
2022/02/24 04:22:50;;;;;;;;;;;;;;;13.27;47.80;100977.19;4940001;28;112062;-62
2022/02/24 04:25:16;;;;;;;;;;;;;;;13.25;47.61;100971.25;4936795;28;126889;-63
2022/02/24 04:27:49;;;;;;;;;;;;;;;13.24;47.82;100965.00;4940082;28;98178;-67
2022/02/24 04:30:16;;;;;;;;;;;;;;;13.23;47.79;100968.78;4936861;28;120467;-67
2022/02/24 04:32:42;;;;;;;;;;;;;;;13.23;47.81;100966.06;4939092;28;102320;-64
2022/02/24 04:35:08;;;;;;;;;;;;;;;13.23;47.71;100970.69;4939669;28;128030;-63
2022/02/24 04:37:34;;;;;;;;;;;;;;;13.21;47.76;100957.41;4939580;28;98824;-63
2022/02/24 04:40:00;;;;;;;;;;;;;;;13.20;48.02;100958.50;4939150;28;122559;-63
2022/02/24 04:42:26;;;;;;;;;;;;;;;13.20;47.87;100960.38;4938458;28;112853;-63
2022/02/24 04:44:52;;;;;;;;;;;;;;;13.19;47.91;100948.72;4923214;28;117303;-63
2022/02/24 04:47:18;;;;;;;;;;;;;;;13.19;47.78;100954.16;4918860;28;128160;-63
2022/02/24 04:49:44;;;;;;;;;;;;;;;13.18;47.89;100947.13;4919106;28;122496;-68
2022/02/24 04:52:10;;;;;;;;;;;;;;;13.18;47.84;100940.88;4918037;28;128051;-63
2022/02/24 04:54:36;;;;;;;;;;;;;;;13.17;47.72;100944.69;4918647;28;128638;-61
2022/02/24 04:57:02;;;;;;;;;;;;;;;13.16;47.97;100933.03;4923808;28;127970;-64
2022/02/24 04:59:28;;;;;;;;;;;;;;;13.16;47.80;100930.31;4939365;28;121029;-64
2022/02/24 05:01:53;;;;;;;;;;;;;;;13.16;47.87;100932.22;4938923;28;127454;-66
2022/02/24 05:04:19;;;;;;;;;;;;;;;13.15;47.86;100919.78;4935721;28;128036;-63
2022/02/24 05:06:45;;;;;;;;;;;;;;;13.14;47.91;100924.38;4939686;28;99520;-67
2022/02/24 05:09:11;;;;;;;;;;;;;;;13.14;48.09;100926.28;4937491;28;98204;-64
2022/02/24 05:11:37;;;;;;;;;;;;;;;13.13;47.85;100920.06;4931640;28;98287;-64
2022/02/24 05:14:03;;;;;;;;;;;;;;;13.13;47.70;100925.47;4918900;28;128149;-63
2022/02/24 05:16:29;;;;;;;;;;;;;;;13.13;47.90;100919.25;4920740;28;97829;-68
2022/02/24 05:18:55;;;;;;;;;;;;;;;13.13;47.82;100919.25;4919384;28;100830;-68
2022/02/24 05:21:21;;;;;;;;;;;;;;;13.12;47.97;100910.31;4918577;28;99345;-68
2022/02/24 05:23:47;;;;;;;;;;;;;;;13.11;47.98;100907.88;4920531;28;98253;-67
2022/02/24 05:26:13;;;;;;;;;;;;;;;13.11;47.90;100894.34;4918775;28;126451;-68
2022/02/24 05:28:39;;;;;;;;;;;;;;;13.10;47.74;100898.16;4919258;28;119608;-63
2022/02/24 05:31:05;;;;;;;;;;;;;;;13.09;48.08;100889.22;4919070;28;98213;-63
2022/02/24 05:33:31;;;;;;;;;;;;;;;13.09;47.97;100885.69;4917064;28;98461;-63
2022/02/24 05:35:57;;;;;;;;;;;;;;;13.09;47.78;100888.41;4917421;28;100823;-68
2022/02/24 05:38:23;;;;;;;;;;;;;;;13.08;47.91;100884.88;4914841;28;122724;-63
2022/02/24 05:40:49;;;;;;;;;;;;;;;13.07;47.90;100880.53;4914708;28;127603;-67
2022/02/24 05:43:15;;;;;;;;;;;;;;;13.08;47.83;100881.34;4912449;28;127769;-63
2022/02/24 05:45:42;;;;;;;;;;;;;;;13.08;47.93;100874.03;4915157;28;98296;-67
2022/02/24 05:48:09;;;;;;;;;;;;;;;13.08;47.93;100876.75;4915756;28;97993;-68
2022/02/24 05:50:35;;;;;;;;;;;;;;;13.08;47.93;100881.34;4914367;28;126887;-68
2022/02/24 05:53:02;;;;;;;;;;;;;;;13.08;47.78;100868.63;4915716;28;98657;-68
2022/02/24 05:55:31;;;;;;;;;;;;;;;13.09;47.91;100872.97;4914545;28;98182;-69
2022/02/24 05:57:57;;;;;;;;;;;;;;;13.11;47.88;100867.28;4914788;28;123760;-64
2022/02/24 06:00:23;;;;;;;;;;;;;;;13.10;47.81;100858.34;4914294;28;129015;-68
2022/02/24 06:02:49;;;;;;;;;;;;;;;13.13;47.74;100859.72;4915788;28;103327;-67
2022/02/24 06:05:16;;;;;;;;;;;;;;;13.12;47.88;100850.75;4917014;28;99102;-63
2022/02/24 06:07:42;;;;;;;;;;;;;;;13.13;48.08;100849.69;4919925;28;97915;-63
2022/02/24 06:10:09;;;;;;;;;;;;;;;13.15;47.75;100844.81;4921827;28;99156;-68
2022/02/24 06:12:35;;;;;;;;;;;;;;;13.17;47.96;100836.41;4922616;28;99204;-64
2022/02/24 06:15:01;;;;;;;;;;;;;;;13.19;47.84;100832.34;4920938;28;125503;-63
2022/02/24 06:17:27;;;;;;;;;;;;;;;13.21;47.75;100823.97;4921860;28;121731;-63
2022/02/24 06:19:53;;;;;;;;;;;;;;;13.22;47.97;100829.09;4920387;28;128223;-63
2022/02/24 06:22:19;;;;;;;;;;;;;;;13.25;47.81;100827.75;4921303;28;121789;-63
2022/02/24 06:24:45;;;;;;;;;;;;;;;13.27;47.61;100817.44;4886715;28;128321;-67
2022/02/24 06:27:11;;;;;;;;;;;;;;;13.29;47.86;100820.72;4922518;28;97887;-67
2022/02/24 06:29:37;;;;;;;;;;;;;;;13.32;47.68;100828.25;4904486;28;99614;-68
2022/02/24 06:32:03;;;;;;;;;;;;;;;13.35;47.80;100824.19;4903931;28;127769;-63
2022/02/24 06:34:30;;;;;;;;;;;;;;;13.39;47.78;100823.34;4920470;28;125011;-68
2022/02/24 06:36:56;;;;;;;;;;;;;;;13.42;47.90;100817.41;4923595;28;97916;-67
2022/02/24 06:39:22;;;;;;;;;;;;;;;13.45;47.73;100813.34;4920415;28;128561;-66
2022/02/24 06:41:48;;;;;;;;;;;;;;;13.49;47.85;100801.66;4898374;28;113377;-63
2022/02/24 06:44:14;;;;;;;;;;;;;;;13.55;48.15;100804.34;4939880;28;126934;-67
2022/02/24 06:46:40;;;;;;;;;;;;;;;13.57;47.91;100794.84;4923338;28;97937;-68
2022/02/24 06:49:06;;;;;;;;;;;;;;;13.61;47.66;100790.50;4923370;28;99418;-67
2022/02/24 06:51:32;;;;;;;;;;;;;;;13.67;47.73;100788.56;4940235;28;128560;-63
2022/02/24 06:53:58;;;;;;;;;;;;;;;13.71;47.92;100790.41;4939487;28;125813;-63
2022/02/24 06:56:24;;;;;;;;;;;;;;;13.75;47.78;100786.09;4927119;28;122961;-68
2022/02/24 06:58:51;;;;;;;;;;;;;;;13.80;47.99;100779.81;4871614;28;98562;-63
2022/02/24 07:01:17;;;;;;;;;;;;;;;13.83;48.07;100773.00;4920795;28;99178;-63
2022/02/24 07:03:43;;;;;;;;;;;;;;;13.87;47.71;100774.06;4903604;28;98510;-68
2022/02/24 07:06:10;;;;;;;;;;;;;;;13.90;47.78;100777.03;4921953;28;98096;-64
2022/02/24 07:08:36;;;;;;;;;;;;;;;13.93;48.08;100773.75;4919946;28;125235;-68
2022/02/24 07:11:04;;;;;;;;;;;;;;;13.96;47.84;100777.81;4921575;28;98309;-63
2022/02/24 07:13:30;;;;;;;;;;;;;;;14.02;48.09;100767.72;4903897;28;98073;-68
2022/02/24 07:15:56;;;;;;;;;;;;;;;14.06;47.89;100760.66;4903046;28;98042;-63
2022/02/24 07:18:22;;;;;;;;;;;;;;;14.14;48.23;100768.19;4919907;28;127611;-63
2022/02/24 07:20:48;;;;;;;;;;;;;;;14.24;47.77;100765.38;4920515;28;123833;-63
2022/02/24 07:23:14;;;;;;;;;;;;;;;14.35;48.05;100760.69;4919977;28;127668;-68
2022/02/24 07:25:40;;;;;;;;;;;;;;;14.47;47.82;100758.41;4903173;28;107585;-67
2022/02/24 07:28:07;;;;;;;;;;;;;;;14.61;47.71;100762.06;4902160;28;127446;-68
2022/02/24 07:30:37;;;;;;;;;;;;;;;14.78;47.84;100747.28;4902853;28;100040;-68
2022/02/24 07:33:03;;;;;;;;;;;;;;;14.93;47.67;100741.66;4916545;28;98250;-63
2022/02/24 07:35:29;;;;;;;;;;;;;;;15.08;47.67;100749.63;4905579;28;97837;-63
2022/02/24 07:37:55;;;;;;;;;;;;;;;15.20;47.31;100747.28;4940519;28;107627;-67
2022/02/24 07:40:21;;;;;;;;;;;;;;;15.33;47.67;100743.06;4939409;28;126270;-68
2022/02/24 07:42:47;;;;;;;;;;;;;;;15.45;47.41;100742.63;4939743;28;128247;-63
2022/02/24 07:45:13;;;;;;;;;;;;;;;15.60;47.20;100738.88;4926055;28;97845;-63
2022/02/24 07:47:39;;;;;;;;;;;;;;;15.80;47.25;100738.63;4920674;28;98537;-67
2022/02/24 07:50:06;;;;;;;;;;;;;;;15.89;47.19;100731.41;4902714;28;98570;-67
2022/02/24 07:52:32;;;;;;;;;;;;;;;15.96;47.47;100728.31;4921117;28;97678;-63
2022/02/24 07:54:58;;;;;;;;;;;;;;;15.92;47.38;100724.56;4920751;28;97876;-67
2022/02/24 07:57:24;;;;;;;;;;;;;;;16.15;47.24;100720.91;4920825;28;98648;-63
2022/02/24 07:59:50;;;;;;;;;;;;;;;16.45;46.95;100722.25;4921332;28;126238;-68
2022/02/24 08:02:16;;;;;;;;;;;;;;;16.73;46.60;100718.75;4920923;28;127407;-64
2022/02/24 08:04:42;;;;;;;;;;;;;;;17.05;46.24;100712.41;4939555;28;101599;-67
2022/02/24 08:07:08;;;;;;;;;;;;;;;17.40;46.16;100705.38;4940138;28;98353;-67
2022/02/24 08:09:34;;;;;;;;;;;;;;;17.80;45.81;100703.69;4939546;28;98981;-67
2022/02/24 08:14:44;;;;;;;;;;;;;;;18.48;45.48;100692.66;4938292;28;98272;-62
2022/02/24 08:17:10;;;;;;;;;;;;;;;19.09;44.94;100694.47;4921429;28;128508;-61
2022/02/24 08:19:36;;;;;;;;;;;;;;;19.51;44.55;100685.84;4920682;28;127846;-61
2022/02/24 08:22:03;;;;;;;;;;;;;;;20.00;44.46;100676.31;4938286;28;128496;-64
2022/02/24 08:24:30;;;;;;;;;;;;;;;20.54;44.08;100678.56;4909800;28;97950;-67
2022/02/24 08:26:56;;;;;;;;;;;;;;;20.96;43.82;100682.22;4902136;28;115195;-63
2022/02/24 08:29:22;;;;;;;;;;;;;;;21.65;43.15;100675.41;4931816;28;128116;-67
2022/02/24 08:31:48;;;;;;;;;;;;;;;22.31;42.79;100674.59;4939112;28;126280;-66
2022/02/24 08:34:14;;;;;;;;;;;;;;;22.40;43.27;100667.06;4939277;28;97929;-63
2022/02/24 08:36:40;;;;;;;;;;;;;;;22.50;43.32;100665.81;4919421;28;128954;-64
2022/02/24 08:39:06;;;;;;;;;;;;;;;23.24;42.74;100659.09;4920665;28;127966;-63
2022/02/24 08:41:33;;;;;;;;;;;;;;;24.05;42.49;100652.69;4938549;28;98441;-63
2022/02/24 08:43:59;;;;;;;;;;;;;;;24.69;41.83;100655.09;4939922;28;97903;-64
2022/02/24 08:46:24;;;;;;;;;;;;;;;25.45;41.20;100652.81;4938648;28;99094;-67
2022/02/24 08:48:50;;;;;;;;;;;;;;;26.01;41.25;100646.00;4920435;28;127027;-67
2022/02/24 08:51:16;;;;;;;;;;;;;;;26.52;41.09;100645.69;4920472;28;127746;-63
2022/02/24 08:53:42;;;;;;;;;;;;;;;26.91;40.81;100645.47;4920981;28;122414;-67
2022/02/24 08:56:08;;;;;;;;;;;;;;;27.46;40.38;100643.06;4918231;28;128448;-64
2022/02/24 08:58:34;;;;;;;;;;;;;;;27.04;41.04;100641.34;4938306;28;127412;-66
2022/02/24 09:01:00;;;;;;;;;;;;;;;26.46;41.60;100635.34;4937802;28;125787;-68
2022/02/24 09:03:26;;;;;;;;;;;;;;;26.24;41.65;100626.69;4888401;28;122589;-67
2022/02/24 09:05:52;;;;;;;;;;;;;;;25.63;42.16;100614.56;4905896;28;128006;-64
2022/02/24 09:08:17;;;;;;;;;;;;;;;25.12;42.33;100611.19;4884313;28;126282;-67
2022/02/24 09:10:43;;;;;;;;;;;;;;;24.71;42.87;100602.38;4918051;28;127488;-64
2022/02/24 09:13:09;;;;;;;;;;;;;;;24.31;43.15;100602.59;4900875;28;123474;-67
2022/02/24 09:15:36;;;;;;;;;;;;;;;23.92;43.05;100588.66;4918582;28;126646;-63
2022/02/24 09:18:05;;;;;;;;;;;;;;;23.60;43.40;100587.78;4920409;28;98936;-63
2022/02/24 09:20:32;;;;;;;;;;;;;;;23.31;43.27;100583.47;4918245;28;98351;-67
2022/02/24 09:22:58;;;;;;;;;;;;;;;23.36;43.17;100575.78;4901260;28;98305;-67
2022/02/24 09:25:24;;;;;;;;;;;;;;;23.27;43.17;100573.19;4918844;28;106340;-64
2022/02/24 09:27:50;;;;;;;;;;;;;;;23.28;43.15;100571.22;4924976;28;128591;-64
2022/02/24 09:30:16;;;;;;;;;;;;;;;23.09;43.22;100562.81;4923142;28;97811;-63
2022/02/24 09:32:43;;;;;;;;;;;;;;;22.84;43.66;100562.88;4936193;28;98230;-64
2022/02/24 09:35:09;;;;;;;;;;;;;;;22.60;43.78;100571.16;4936734;28;98984;-67
2022/02/24 09:37:36;;;;;;;;;;;;;;;22.42;43.81;100557.69;4938725;28;98919;-63
2022/02/24 09:40:06;;;;;;;;;;;;;;;22.38;43.79;100553.22;4941105;28;98073;-64
2022/02/24 09:42:33;;;;;;;;;;;;;;;22.45;43.51;100559.75;4936632;28;98240;-67
2022/02/24 09:44:59;;;;;;;;;;;;;;;22.65;43.33;100555.25;4915307;28;127859;-67
2022/02/24 09:47:26;;;;;;;;;;;;;;;22.78;43.25;100547.78;4939495;28;128223;-66
2022/02/24 09:49:53;;;;;;;;;;;;;;;23.42;42.36;100546.88;4939946;28;98723;-67
2022/02/24 09:52:19;;;;;;;;;;;;;;;23.30;42.58;100552.41;4924762;28;97945;-63
2022/02/24 09:54:45;;;;;;;;;;;;;;;23.21;43.00;100555.31;4932490;28;128824;-66
2022/02/24 09:57:10;;;;;;;;;;;;;;;23.62;42.33;100541.47;4921204;28;128356;-63
2022/02/24 09:59:36;;;;;;;;;;;;;;;23.52;42.67;100540.84;4922056;28;127725;-64
2022/02/24 10:02:03;;;;;;;;;;;;;;;23.20;43.56;100539.97;4921194;28;123492;-64
2022/02/24 10:04:29;;;;;;;;;;;;;;;23.02;43.53;100533.97;4922244;28;98194;-67
2022/02/24 10:06:55;;;;;;;;;;;;;;;22.92;43.70;100530.94;4921416;28;98464;-67
2022/02/24 10:09:31;;;;;;;;;;;;;;;22.84;43.96;100526.38;4887341;28;127556;-67
2022/02/24 10:12:08;;;;;;;;;;;;;;;23.45;42.75;100520.59;4924656;28;98361;-63
2022/02/24 10:14:34;;;;;;;;;;;;;;;24.17;41.77;100514.94;4928072;28;99094;-67
2022/02/24 10:17:05;;;;;;;;;;;;;;;24.05;42.45;100520.53;4920478;28;126159;-64
2022/02/24 10:19:41;;;;;;;;;;;;;;;24.02;42.64;100522.06;4921889;28;98656;-63
2022/02/24 10:22:19;;;;;;;;;;;;;;;23.95;42.79;100517.19;4921428;28;97897;-64
2022/02/24 10:25:06;;;;;;;;;;;;;;;23.48;43.70;100512.44;4921734;28;98431;-67
2022/02/24 10:27:36;;;;;;;;;;;;;;;23.07;44.09;100505.47;4921508;28;99272;-66
2022/02/24 10:30:02;;;;;;;;;;;;;;;22.78;44.46;100503.81;4928691;28;98561;-66
2022/02/24 10:32:49;;;;;;;;;;;;;;;22.56;44.91;100499.66;4942125;28;97912;-63
2022/02/24 10:35:29;;;;;;;;;;;;;;;22.28;45.13;100486.66;4939714;28;98388;-63
2022/02/24 10:38:00;;;;;;;;;;;;;;;22.06;45.32;100476.94;4941509;28;98406;-63
2022/02/24 10:40:28;;;;;;;;;;;;;;;21.87;45.55;100475.91;4940445;28;98480;-63
2022/02/24 10:42:55;;;;;;;;;;;;;;;21.62;45.70;100483.34;4941217;28;97825;-68
2022/02/24 10:45:25;;;;;;;;;;;;;;;21.39;45.93;100472.78;4892990;28;98351;-67
2022/02/24 10:47:58;;;;;;;;;;;;;;;21.16;46.11;100472.34;4908664;28;98723;-63
2022/02/24 10:50:44;;;;;;;;;;;;;;;20.94;46.27;100473.53;4905527;28;98218;-63
2022/02/24 10:53:10;;;;;;;;;;;;;;;20.73;46.65;100467.28;4930321;28;102466;-68
2022/02/24 10:55:52;;;;;;;;;;;;;;;20.57;46.54;100464.34;4938892;28;127969;-67
2022/02/24 10:58:18;;;;;;;;;;;;;;;20.43;46.70;100461.03;4923100;28;98396;-67
2022/02/24 11:00:44;;;;;;;;;;;;;;;20.30;46.62;100458.25;4940012;28;98376;-63
2022/02/24 11:03:10;;;;;;;;;;;;;;;20.19;46.72;100448.81;4939820;28;122442;-67
2022/02/24 11:05:37;;;;;;;;;;;;;;;20.10;46.60;100451.59;4922610;28;98058;-63
2022/02/24 11:08:05;;;;;;;;;;;;;;;20.04;46.80;100438.44;4923984;28;98726;-68
2022/02/24 11:10:31;;;;;;;;;;;;;;;19.96;46.76;100437.38;4908194;28;98248;-63
2022/02/24 11:12:56;;;;;;;;;;;;;;;19.89;46.73;100431.63;4930169;28;123175;-63
2022/02/24 11:15:22;;;;;;;;;;;;;;;19.84;46.77;100427.13;4918683;28;120515;-63
2022/02/24 11:17:49;;;;;;;;;;;;;;;19.80;46.71;100423.47;4920580;28;126007;-67
2022/02/24 11:20:15;;;;;;;;;;;;;;;19.77;46.88;100415.13;4920845;28;97983;-68
2022/02/24 11:22:41;;;;;;;;;;;;;;;19.72;47.13;100412.56;4918848;28;123309;-67
2022/02/24 11:25:07;;;;;;;;;;;;;;;19.66;46.96;100419.38;4932056;28;127896;-67
2022/02/24 11:27:39;;;;;;;;;;;;;;;19.60;47.12;100419.50;4921609;28;121153;-68
2022/02/24 11:30:12;;;;;;;;;;;;;;;19.56;47.26;100417.75;4935705;28;117900;-64
2022/02/24 11:32:43;;;;;;;;;;;;;;;19.52;47.04;100408.63;4920620;28;119557;-67
2022/02/24 11:35:17;;;;;;;;;;;;;;;19.49;47.13;100399.16;4917875;28;125156;-67
2022/02/24 11:37:45;;;;;;;;;;;;;;;19.47;47.14;100397.88;4920559;28;98542;-63
2022/02/24 11:40:16;;;;;;;;;;;;;;;19.45;47.22;100398.19;4939436;28;98486;-63
2022/02/24 11:42:43;;;;;;;;;;;;;;;19.43;47.20;100389.53;4940217;28;97669;-67
2022/02/24 11:45:24;;;;;;;;;;;;;;;19.41;47.36;100385.50;4925818;28;98163;-69
2022/02/24 11:48:12;;;;;;;;;;;;;;;19.37;47.42;100380.72;4921563;28;101708;-66
2022/02/24 11:50:45;;;;;;;;;;;;;;;19.36;47.37;100379.09;4920603;28;99016;-63
2022/02/24 11:53:31;;;;;;;;;;;;;;;19.36;47.25;100370.09;4921296;28;97906;-63
2022/02/24 11:56:19;;;;;;;;;;;;;;;19.36;47.29;100364.63;4920966;28;100471;-62
2022/02/24 11:58:48;;;;;;;;;;;;;;;19.33;47.26;100349.69;4921229;28;98512;-67
2022/02/24 12:01:30;;;;;;;;;;;;;;;19.31;47.30;100341.03;4920763;28;98429;-67
2022/02/24 12:04:00;;;;;;;;;;;;;;;19.28;47.26;100340.88;4920573;28;98043;-67
2022/02/24 12:06:41;;;;;;;;;;;;;;;19.29;47.49;100340.56;4919925;28;98246;-63
2022/02/24 12:09:14;;;;;;;;;;;;;;;19.30;47.28;100330.44;4920507;28;98716;-66
2022/02/24 12:11:40;;;;;;;;;;;;;;;19.31;47.45;100332.03;4922699;28;97772;-63
2022/02/24 12:14:18;;;;;;;;;;;;;;;19.30;47.39;100319.53;4931358;28;98027;-68
2022/02/24 12:17:05;;;;;;;;;;;;;;;19.30;47.55;100317.59;4920602;28;98613;-63
2022/02/24 12:19:45;;;;;;;;;;;;;;;19.36;47.55;100308.06;4926159;28;99052;-67
2022/02/24 12:22:40;;;;;;;;;;;;;;;19.46;47.18;100306.88;4917273;28;98578;-69
2022/02/24 12:25:07;;;;;;;;;;;;;;;19.55;47.16;100293.16;4916704;28;121164;-67
2022/02/24 12:27:41;;;;;;;;;;;;;;;19.66;47.04;100293.63;4926203;28;99523;-64
2022/02/24 12:30:09;;;;;;;;;;;;;;;19.72;46.99;100284.84;4936564;28;98410;-65
2022/02/24 12:32:41;;;;;;;;;;;;;;;19.77;47.08;100279.22;4928618;28;104321;-63
2022/02/24 12:35:09;;;;;;;;;;;;;;;19.81;47.15;100269.22;4916532;28;98183;-67